Charles Clarke

Chief Scout - Blackburn Rovers
20 Nov 2027
Saturday
Process

Personality

Adaptability (5) Ambition (15) Controversy (5) Loyalty (15) Pressure (17) Professionalism (17) Sportsmanship (6) Temperament (4)

Profile

Coaching Style Democratic
License National B
Determination 5
Man Management 12
Motivating 12
Discipline 9
Job Satisfaction
90%
Fatigue
0%
Role Chief Scout
Wage 61.5K p/w
Contract 14.03.2030

Performance

Behaviour Good
Training Effectiveness
42%
Player Development
40%
Injury Prevention
55%
Tactical Implementation
30%

Recent Events

Attended a recruitment meeting now
Recommended a transfer target now
Recommended a transfer target now
Attended a recruitment meeting 7d ago
Recommended a transfer target 7d ago
Recommended a transfer target 7d ago
Assessed a player 7d ago
Assessed a player 7d ago

Currently Monitoring

141
Player Club Status Ability Confidence Watched Last Observed Latest Vote
Luis Otávio Toronto FC Active 109 / 109 40% 4 19.11.2027 -
Adam Aznou Everton Active 125 / 143 40% 1 19.11.2027 -
Josh Nichols Tranmere Rovers Active 124 / 131 40% 1 19.11.2027 -
Adrian Gill Atlanta United FC Active 93 / 114 40% 1 18.11.2027 -
Julián Bazán Philadelphia Union Active 116 / 110 40% 1 18.11.2027 -
Felipe Faúndez O'Higgins Active 96 / 122 40% 1 18.11.2027 -
Kaick FC Dallas Active 101 / 109 40% 2 11.11.2027 -
Azizbek To'lqinbekov Bunyodkor Active 97 / 92 40% 1 11.11.2027 -
Joe Johnson Luton Town Active 106 / 124 40% 2 09.11.2027 -
Kauã Moraes Cruzeiro Active 135 / 118 40% 1 09.11.2027 -
Fillip Jenssen Riise Stabaek Active 108 / 108 40% 1 09.11.2027 -
Josh Acheampong Oxford United Active 139 / 135 40% 1 08.11.2027 -
Kieran Morgan Queens Park Rangers Active 125 / 121 40% 1 08.11.2027 -
Colin Guske Orlando City Active 89 / 116 40% 1 08.11.2027 -
Facundo Balatti Penarol Active 112 / 111 40% 2 05.11.2027 -
Habeeb Ogunneye Astra Active 101 / 83 40% 1 05.11.2027 -
Trey Nyoni Doncaster Rovers Active 135 / 141 40% 1 04.11.2027 -
Christos Mouzakitis Hull City Active 141 / 138 40% 4 03.11.2027 -
Esquerdinha Oldham Athletic Active 124 / 113 40% 1 03.11.2027 -
Aiden Hezarkhani Real Salt Lake Active 87 / 104 40% 1 02.11.2027 -
Gideon Manaseh Ikorodu City Active 84 / 78 40% 1 02.11.2027 -
Aidan Elliott-Wheeler Voluntari Active 97 / 112 40% 1 01.11.2027 -
Honest Ahanor Atalanta Active 136 / 149 40% 1 01.11.2027 -
Sam Curtis Swindon Town Active 112 / 124 40% 1 01.11.2027 -
Lucas Bergvall Tottenham Active 150 / 150 40% 3 21.06.2027 -
Caleb Yirenkyi Coventry City Active 145 / 132 40% 4 21.06.2027 -
Gorka Gorosabel Real Sociedad Active 108 / 108 40% 1 21.06.2027 -
Mao Hosoya Manchester City Report Ready 134 / 135 67% 1 01.06.2027 -
Roberto Fernández Braga Lost 138 / 140 66% 1 01.06.2027 -
Tommaso Cecotti Carpi Active 96 / 93 40% 1 31.05.2027 -
Sergio Castillo Cortulua Active 104 / 101 40% 1 31.05.2027 -
Louie Barry Sheffield Wednesday Active 116 / 132 40% 2 30.05.2027 -
Paris Maghoma Norwich City Active 128 / 119 40% 3 30.05.2027 -
Adam Randell Bristol City Active 133 / 139 40% 1 30.05.2027 -
Giorgi Chakvetadze Watford Active 135 / 119 40% 3 29.05.2027 -
Isaac Price West Bromwich Albion Active 127 / 140 40% 3 29.05.2027 -
Tim Iroegbunam Hull City Active 137 / 134 40% 1 29.05.2027 -
Tyrese Campbell Sheffield United Active 135 / 136 40% 5 28.05.2027 -
Isaiah Jones Luton Town Active 121 / 115 40% 3 28.05.2027 -
Ollie Tanner Cardiff City Active 123 / 116 40% 1 28.05.2027 -
Lamine Cissé Peterborough United Active 123 / 135 40% 5 26.05.2027 -
Loum Tchaouna Coventry City Active 134 / 152 40% 4 26.05.2027 -
Brooke Norton-Cuffy Hull City Active 131 / 136 40% 2 25.05.2027 -
Max Johnston Derby County Active 124 / 139 40% 3 24.05.2027 -
Welington Southampton Active 129 / 116 40% 2 24.05.2027 -
Lucas Jetten Cambuur Active 110 / 118 40% 2 24.05.2027 -
Jay Stansfield Birmingham Active 129 / 140 40% 1 24.05.2027 -
Gonzalo Fulham Active 143 / 143 40% 7 21.05.2027 -
Julio Enciso Ipswich Town Active 149 / 159 40% 4 20.05.2027 -
Ethan Galbraith Swansea City Active 139 / 142 40% 4 20.05.2027 -
Milan van Ewijk Coventry City Active 131 / 121 40% 3 19.05.2027 -
Dylan Lawlor Cardiff City Active 123 / 119 40% 2 18.05.2027 -
Ronald Swansea City Active 122 / 120 40% 2 18.05.2027 -
Max Bird Birmingham Active 127 / 144 40% 4 18.05.2027 -
Tom Fellows Southampton Active 137 / 138 40% 6 15.05.2027 -
Mihailo Ivanović Millwall Active 129 / 117 40% 2 14.05.2027 -
Tomáš Rigo Stoke City Active 129 / 142 40% 2 14.05.2027 -
Tshepang Moremi Orlando Pirates Active 116 / 108 40% 2 12.05.2027 -
Rumarn Burrell Queens Park Rangers Active 133 / 136 40% 3 11.05.2027 -
Enzo Barrenechea Burnley Active 141 / 145 40% 1 09.05.2027 -
Malick Fofana Sunderland Active 137 / 155 40% 1 09.05.2027 -
Dávid Strelec Middlesbrough Active 143 / 127 40% 2 08.05.2027 -
Ryan Sessegnon Fulham Active 152 / 140 40% 3 07.05.2027 -
Koki Saito Queens Park Rangers Active 134 / 131 40% 3 06.05.2027 -
Abraham Paintsil Hasaacas Active 98 / 79 40% 2 06.05.2027 -
Pietro Reggiori Pro Patria Active 88 / 85 40% 2 06.05.2027 -
Othmane Maamma Watford Active 120 / 139 40% 5 04.05.2027 -
Abu Kamara Portsmouth Active 120 / 107 40% 3 04.05.2027 -
Andre Brooks Sheffield United Active 128 / 145 40% 1 03.05.2027 -
Jeon Jin-Woo Sheffield Wednesday Active 140 / 124 40% 4 01.05.2027 -
Relebohile Mofokeng Orlando Pirates Active 126 / 113 40% 3 30.04.2027 -
Brenden Aaronson Leeds United Active 135 / 136 40% 2 30.04.2027 -
Enzo Le Fée Sunderland Active 141 / 130 40% 2 30.04.2027 -
Jack McGlynn Stoke City Active 132 / 137 40% 4 29.04.2027 -
Cian Ashford Cardiff City Active 118 / 106 40% 1 29.04.2027 -
Rodrigo Gomes Wolverhampton Active 136 / 142 40% 1 28.04.2027 -
Alex Scott Bournemouth Active 154 / 154 40% 3 27.04.2027 -
Ali Ahmed Norwich City Active 124 / 113 40% 3 25.04.2027 -
Max Conway Bolton Wanderers Active 124 / 124 40% 1 25.04.2027 -
Adrien Truffert Bournemouth Active 144 / 153 40% 1 24.04.2027 -
Aidomo Emakhu Oxford United Active 122 / 124 40% 1 24.04.2027 -
Camilo Durán Bloemfontein Celtic Active 120 / 116 40% 4 23.04.2027 -
Finn Azaz Southampton Active 138 / 124 40% 4 23.04.2027 -
Yehor Yarmoliuk Brentford Active 141 / 149 40% 1 20.04.2027 -
Maeson King Blackpool Active 110 / 100 40% 2 18.04.2027 -
Jovon Makama Norwich City Active 131 / 122 40% 4 18.04.2027 -
Jofre Torrents Ajax Active 116 / 128 40% 1 18.04.2027 -
Joel McGregor Swindon Town Active 90 / 112 40% 2 14.04.2027 -
Leandro Martins Benfica Active 94 / 91 40% 3 14.04.2027 -
Romaine Mundle Sunderland Active 136 / 126 40% 1 14.04.2027 -
Olaniyi Saheed Kwara United Active 92 / 102 40% 1 14.04.2027 -
Carlos Vicente Udinese Active 144 / 138 40% 2 08.04.2027 -
Jack Rudoni Coventry City Active 130 / 139 40% 1 07.04.2027 -
Jason Knight Bristol City Active 134 / 139 40% 1 07.04.2027 -
Amine Adli Bournemouth Active 140 / 144 40% 1 06.04.2027 -
Gladson Sulemana Liberty Professionals Active 95 / 98 40% 1 05.04.2027 -
Fraser Murray Wigan Athletic Active 116 / 124 40% 3 03.04.2027 -
Helinho Toluca Active 141 / 133 40% 2 02.04.2027 -
Tariq Lamptey Queens Park Rangers Active 137 / 127 40% 2 01.04.2027 -
Daniel Kelly Derby County Active 107 / 114 40% 1 01.04.2027 -
Joe Gelhardt Hull City Active 136 / 138 40% 1 29.03.2027 -
Imrân Louza Watford Active 131 / 143 40% 1 28.03.2027 -
Zeidane Inoussa Swansea City Active 131 / 125 40% 2 24.03.2027 -
Sascha Britschgi Catanzaro Active 114 / 131 40% 2 20.03.2027 -
Bobby Clark Derby County Active 128 / 118 40% 2 17.03.2027 -
Million Manhoef Stoke City Active 130 / 131 40% 2 16.03.2027 -
Bosun Lawal Stoke City Active 127 / 130 40% 1 11.03.2027 -
Gonçalo Oliveira Benfica Active 109 / 111 40% 1 10.03.2027 -
Ousmane Diakité West Bromwich Albion Active 124 / 133 40% 1 08.03.2027 -
Fer López Wolverhampton Active 127 / 126 40% 1 07.03.2027 -
T-Jay Parfitt Cardiff City Active 90 / 101 40% 1 05.03.2027 -
Tommy Conway Middlesbrough Active 125 / 115 40% 2 25.01.2027 -
Solly Khunyedi Bloemfontein Celtic Active 103 / 111 40% 1 25.01.2027 -
Sidiki Chérif Coventry City Active 126 / 119 40% 1 18.01.2027 -
Bazoumana Touré Newcastle United Active 142 / 139 40% 1 18.01.2027 -
Jeffrey Adjei Wa All Stars Active 84 / 70 40% 1 14.01.2027 -
Adnan Carrasco FC Nantes Negotiating 151 / 156 64% 1 01.01.2027 -
Thulani Billiat Utrecht Active 136 / 136 61% 1 01.01.2027 Approve
Amar Memić Juventude Active 127 / 128 62% 1 01.01.2027 -
Mayckel Lahdo Malmo FF Active 125 / 127 66% 1 01.01.2027 Approve
Noah Sadiki Sunderland Active 147 / 153 40% 2 07.12.2026 -
Simphiwe Selepe Orlando Pirates Active 116 / 106 40% 4 20.11.2026 -
El Hadji Malick Diouf Brentford Active 143 / 148 40% 1 20.11.2026 -
Luther Ngcobo Ajax Cape Town Active 107 / 110 40% 1 18.11.2026 -
Edwin Asamoah Berekum Chelsea Active 72 / 105 40% 1 18.11.2026 -
Jacob Wright Norwich City Active 119 / 138 40% 1 18.11.2026 -
Rhys Youlley Sydney FC Active 95 / 112 40% 1 17.11.2026 -
Mauricio Amaro Atlanta United FC Active 112 / 118 40% 1 17.11.2026 -
Reuell Walters Luton Town Active 115 / 119 40% 1 06.11.2026 -
Philippe Ndinga Philadelphia Union Active 123 / 142 40% 1 06.11.2026 -
Jofrank Istifanus Nasarawa United Active 83 / 110 40% 1 06.11.2026 -
Ronan Kpakio Brentford Active 112 / 136 40% 1 03.11.2026 -
Sergio Oregel Chicago Fire Active 113 / 115 40% 1 02.11.2026 -
Onyia Henry Bendel Insurance Active 94 / 68 40% 1 02.11.2026 -
Mbekezeli Mbokazi Chicago Fire Active 120 / 106 40% 1 05.10.2026 -
Jack Neeley Charlotte Football Club Active 80 / 98 40% 1 05.10.2026 -
Daniel Dennis Ikorodu City Active 75 / 89 40% 1 31.08.2026 -
Morrison Agyemang Charlotte Football Club Active 122 / 133 40% 2 20.08.2026 -
Cemran Dansin Orlando Pirates Active 108 / 102 40% 2 18.08.2026 -
Jack Hinshelwood Brighton Active 145 / 150 40% 1 12.08.2026 -
Wilson Isidor Sunderland Active 140 / 136 40% 1 01.08.2026 -